Strona główna
METAR-TAF:

Lotnisko :

Katowice, Polska

Port lotniczy Katowice-Pyrzowice

Szerokość geograficzna: 50-28-27N, Długość geograficzna: 019-04-48E, wysokość: 284 m

Aktualna obserwacja pogody

Raport powstał 27 minut temu, godzina 17:30 UTC
Wiatr 5 kt od północny zachód
Temperatura 21°C
Wilgotność 69%
Ciśnienie 1016 hPa
Widzialność 10 km lub więcej
Rozproszone chmury na wysokości 4800 ft

METAR: EPKT 291730Z 31005KT 9999 SCT048 21/15 Q1016

czas: 19:57 (17:57 UTC)

Prognoza

Raport powstał 27 minut temu, godzina 17:30 UTC
Prognoza ważna od 29 godzina 18 UTC do 30 godzina 18 UTC
Wiatr 10 kt od zachodnio-północny zachód
Widzialność 10 km lub więcej
Brak chmur poniżej 1500 m i brak chmur cumulonimbus
Prawdopodobieństwo 30% :
Przejściowo
od 29 godzina 20 UTC do 30 godzina 06 UTC
Wiatr 2 kt z kierunków zmiennych
Widzialność: 3000 m
zamglenie

TAF: EPKT 291730Z 2918/3018 29010KT CAVOK PROB30 TEMPO 2920/3006 VRB02KT 3000 BR

METAR-TAF

Obserwacja i prognoza pogody dla ponad 4000 lotnisk (raport METAR i TAF).

Dostępne stacje oznaczono żółtymi i czerwonymi punktami na mapie.

Najedź kursorem aby zobaczyć nazwę stacji.

Kliknij aby zobaczyć obserwacje i prognozy pogody.

Aby zmienić mapę: kliknij na zielony przycisk z czarnym krzyżykiem, aby powiększyć; na zielony przycisk z myślnikiem, aby pomniejszyć; na zielone strzałki, aby przejść do map sąsiednich.


METAR-TAF: